createdAt,value
2019-06-10T00:02:12.291Z,17.25
2019-06-10T00:07:18.259Z,16.93
2019-06-10T00:12:24.235Z,16.72
2019-06-10T00:17:31.413Z,16.65
2019-06-10T00:22:37.810Z,16.66
2019-06-10T00:27:43.793Z,16.61
2019-06-10T00:32:51.595Z,16.45
2019-06-10T00:37:57.361Z,16.57
2019-06-10T00:43:05.284Z,16.62
2019-06-10T00:48:24.238Z,16.73
2019-06-10T00:53:21.149Z,16.84
2019-06-10T00:58:27.493Z,16.84
2019-06-10T01:03:33.563Z,16.72
2019-06-10T01:08:40.570Z,16.67
2019-06-10T01:13:46.530Z,16.60
2019-06-10T01:18:53.613Z,16.57
2019-06-10T01:24:01.261Z,16.45
2019-06-10T01:29:07.689Z,16.32
2019-06-10T01:34:15.106Z,16.22
2019-06-10T01:39:22.607Z,16.11
2019-06-10T01:44:30.821Z,16.21
2019-06-10T01:49:36.214Z,16.11
2019-06-10T01:54:42.186Z,16.06
2019-06-10T01:59:50.728Z,16.24
2019-06-10T02:04:55.976Z,16.31
2019-06-10T02:10:02.039Z,16.25
2019-06-10T02:15:10.056Z,16.20
2019-06-10T02:20:18.427Z,16.19
2019-06-10T02:25:24.557Z,16.34
2019-06-10T02:30:41.671Z,16.35
2019-06-10T02:35:44.332Z,16.40
2019-06-10T02:40:45.652Z,16.36
2019-06-10T02:45:53.035Z,16.28
2019-06-10T02:51:03.730Z,16.22
2019-06-10T02:56:12.636Z,16.19
2019-06-10T03:01:19.887Z,16.20
2019-06-10T03:06:34.605Z,16.19
2019-06-10T03:11:37.324Z,16.07
2019-06-10T03:16:45.619Z,16.32
2019-06-10T03:21:52.167Z,16.37
2019-06-10T03:26:58.330Z,16.44
2019-06-10T03:32:05.036Z,16.40
2019-06-10T03:37:12.927Z,16.40
2019-06-10T03:42:19.005Z,16.45
2019-06-10T03:47:27.047Z,16.57
2019-06-10T03:52:32.574Z,16.85
2019-06-10T03:57:38.455Z,17.14
2019-06-10T04:02:44.323Z,17.55
2019-06-10T04:07:52.594Z,18.33
2019-06-10T04:12:57.797Z,19.98
2019-06-10T04:18:04.085Z,21.05
2019-06-10T04:23:12.140Z,19.74
2019-06-10T04:28:17.812Z,20.62
2019-06-10T04:33:25.798Z,21.48
2019-06-10T04:38:32.828Z,21.92
2019-06-10T04:43:39.168Z,20.42
2019-06-10T04:48:45.276Z,20.18
2019-06-10T04:53:52.429Z,19.91
2019-06-10T04:58:59.134Z,19.57
2019-06-10T05:04:05.495Z,19.45
2019-06-10T05:09:12.411Z,19.32
2019-06-10T05:14:19.370Z,19.00
2019-06-10T05:19:26.412Z,18.93
2019-06-10T05:24:34.420Z,19.05
2019-06-10T05:29:42.218Z,19.17
2019-06-10T05:34:48.528Z,19.24
2019-06-10T05:39:54.629Z,19.20
2019-06-10T05:45:03.119Z,19.42
2019-06-10T05:50:10.019Z,19.79
2019-06-10T05:55:16.472Z,20.35
2019-06-10T06:00:23.469Z,21.08
2019-06-10T06:05:30.219Z,21.55
2019-06-10T06:10:36.123Z,21.45
2019-06-10T06:15:42.448Z,22.29
2019-06-10T06:20:47.579Z,22.15
2019-06-10T06:25:53.302Z,21.77
2019-06-10T06:30:58.338Z,21.70
2019-06-10T06:36:03.755Z,22.02
2019-06-10T06:41:10.120Z,22.71
2019-06-10T06:46:15.427Z,22.70
2019-06-10T06:51:33.640Z,22.80
2019-06-10T06:56:28.788Z,22.39
2019-06-10T07:01:36.455Z,22.07
2019-06-10T07:06:43.209Z,21.90
2019-06-10T07:11:48.667Z,21.67
2019-06-10T07:16:53.821Z,21.67
2019-06-10T07:22:09.689Z,21.63
2019-06-10T07:27:06.534Z,21.52
2019-06-10T07:32:12.410Z,21.37
2019-06-10T07:37:17.454Z,21.62
2019-06-10T07:42:22.960Z,21.63
2019-06-10T07:47:28.130Z,21.86
2019-06-10T07:52:34.700Z,22.18
2019-06-10T07:57:42.633Z,22.12
2019-06-10T08:02:46.937Z,22.52
2019-06-10T08:07:54.723Z,22.74
2019-06-10T08:12:59.516Z,22.76
2019-06-10T08:18:05.092Z,22.87
2019-06-10T08:23:12.498Z,22.92
2019-06-10T08:28:17.459Z,23.20
2019-06-10T08:33:23.043Z,23.71
2019-06-10T08:38:28.423Z,24.14
2019-06-10T08:43:33.572Z,24.85
2019-06-10T08:48:39.044Z,25.07
2019-06-10T08:53:47.964Z,24.78
2019-06-10T08:58:53.811Z,24.74
2019-06-10T09:03:58.001Z,24.29
2019-06-10T09:09:03.523Z,24.37
2019-06-10T09:14:09.604Z,24.58
2019-06-10T09:19:14.646Z,24.75
2019-06-10T09:24:22.162Z,25.03
2019-06-10T09:29:26.179Z,25.33
2019-06-10T09:34:33.025Z,26.24
2019-06-10T09:39:37.863Z,26.60
2019-06-10T09:44:46.764Z,26.55
2019-06-10T09:49:51.400Z,26.74
2019-06-10T09:54:57.193Z,26.71
2019-06-10T10:00:04.068Z,26.55
2019-06-10T10:05:09.965Z,26.49
2019-06-10T10:10:18.349Z,26.65
2019-06-10T10:15:30.548Z,27.09
2019-06-10T10:20:30.187Z,26.68
2019-06-10T10:25:35.232Z,27.08
2019-06-10T10:30:42.529Z,27.41
2019-06-10T10:35:48.011Z,27.42
2019-06-10T10:40:58.470Z,27.74
2019-06-10T10:46:05.279Z,28.12
2019-06-10T10:51:07.095Z,27.82
2019-06-10T10:56:12.829Z,27.63
2019-06-10T11:01:18.258Z,27.19
2019-06-10T11:06:23.519Z,27.76
2019-06-10T11:11:28.910Z,27.63
2019-06-10T11:16:33.865Z,27.36
2019-06-10T11:21:38.917Z,27.28
2019-06-10T11:26:45.739Z,26.97
2019-06-10T11:31:53.706Z,27.00
2019-06-10T11:36:58.359Z,27.64
2019-06-10T11:42:03.976Z,28.12
2019-06-10T11:47:09.163Z,27.67
2019-06-10T11:52:14.146Z,28.25
2019-06-10T11:57:19.125Z,29.06
2019-06-10T12:02:24.177Z,28.96
2019-06-10T12:07:29.121Z,28.69
2019-06-10T12:12:34.169Z,28.53
2019-06-10T12:17:46.884Z,29.09
2019-06-10T12:22:46.927Z,29.19
2019-06-10T12:27:55.849Z,29.15
2019-06-10T12:32:59.503Z,28.66
2019-06-10T12:38:06.353Z,28.55
2019-06-10T12:43:12.658Z,28.86
2019-06-10T12:48:17.808Z,28.89
2019-06-10T12:53:23.080Z,28.68
2019-06-10T12:58:28.418Z,28.73
2019-06-10T13:03:33.997Z,28.67
2019-06-10T13:08:39.139Z,28.80
2019-06-10T13:14:56.251Z,29.47
2019-06-10T13:20:06.189Z,29.12
2019-06-10T13:25:13.358Z,29.31
2019-06-10T13:30:18.709Z,29.46
2019-06-10T13:35:24.787Z,29.49
2019-06-10T13:40:31.998Z,29.46
2019-06-10T13:45:37.433Z,29.53
2019-06-10T13:50:43.414Z,29.44
2019-06-10T13:55:52.695Z,29.51
2019-06-10T14:00:56.896Z,29.42
2019-06-10T14:06:18.376Z,29.65
2019-06-10T14:11:13.139Z,29.82
2019-06-10T14:16:18.184Z,30.06
2019-06-10T14:21:24.175Z,30.04
2019-06-10T14:26:37.854Z,30.06
2019-06-10T14:31:43.885Z,30.11
2019-06-10T14:36:45.864Z,30.35
2019-06-10T14:41:52.407Z,30.20
2019-06-10T14:46:58.512Z,29.82
2019-06-10T14:52:04.964Z,29.76
2019-06-10T14:57:13.567Z,30.27
2019-06-10T15:02:18.701Z,29.95
2019-06-10T15:07:24.755Z,30.30
2019-06-10T15:12:32.655Z,30.43
2019-06-10T15:17:38.540Z,30.58
2019-06-10T15:22:44.671Z,30.77
2019-06-10T15:27:52.693Z,30.72
2019-06-10T15:32:58.186Z,30.37
2019-06-10T15:38:04.306Z,30.48
2019-06-10T15:43:20.776Z,30.97
2019-06-10T15:48:25.144Z,31.21
2019-06-10T15:53:29.546Z,31.17
2019-06-10T15:58:39.160Z,30.71
2019-06-10T16:03:45.335Z,30.38
2019-06-10T16:08:52.333Z,30.22
2019-06-10T16:13:58.551Z,30.22
2019-06-10T16:19:04.788Z,30.40
2019-06-10T16:24:13.143Z,30.35
2019-06-10T16:29:19.062Z,30.25
2019-06-10T16:34:28.871Z,29.73
2019-06-10T16:39:32.910Z,29.53
2019-06-10T16:44:38.926Z,29.38
2019-06-10T16:49:44.959Z,29.01
2019-06-10T16:54:52.606Z,28.62
2019-06-10T16:59:58.738Z,28.36
2019-06-10T17:05:05.729Z,28.10
2019-06-10T17:10:12.833Z,27.87
2019-06-10T17:15:19.086Z,27.67
2019-06-10T17:20:26.426Z,27.57
2019-06-10T17:25:33.788Z,27.45
2019-06-10T17:30:38.700Z,27.32
2019-06-10T17:35:43.995Z,27.27
2019-06-10T17:40:49.135Z,27.29
2019-06-10T17:45:54.163Z,27.30
2019-06-10T17:50:59.171Z,27.18
2019-06-10T17:56:04.280Z,27.02
2019-06-10T18:01:09.310Z,26.78
2019-06-10T18:06:14.384Z,26.70
2019-06-10T18:11:19.373Z,26.60
2019-06-10T18:16:24.595Z,26.49
2019-06-10T18:21:30.484Z,26.40
2019-06-10T18:26:37.803Z,26.30
2019-06-10T18:31:43.128Z,26.26
2019-06-10T18:36:48.268Z,26.22
2019-06-10T18:41:53.319Z,26.24
2019-06-10T18:46:58.361Z,26.26
2019-06-10T18:52:03.448Z,26.16
2019-06-10T18:57:08.466Z,26.11
2019-06-10T19:02:13.406Z,26.00
2019-06-10T19:07:18.451Z,25.87
2019-06-10T19:12:23.505Z,25.90
2019-06-10T19:17:29.478Z,25.83
2019-06-10T19:22:36.333Z,25.72
2019-06-10T19:27:44.275Z,25.66
2019-06-10T19:32:48.404Z,25.58
2019-06-10T19:37:53.519Z,25.44
2019-06-10T19:42:58.509Z,25.25
2019-06-10T19:49:44.980Z,25.25
2019-06-10T19:54:49.983Z,25.13
2019-06-10T20:00:07.244Z,25.09
2019-06-10T20:05:02.308Z,25.00
2019-06-10T20:10:07.944Z,24.93
2019-06-10T20:15:24.411Z,24.97
2019-06-10T20:20:29.368Z,24.93
2019-06-10T20:25:34.402Z,24.79
2019-06-10T20:30:39.455Z,24.77
2019-06-10T20:35:45.675Z,24.71
2019-06-10T20:40:52.997Z,24.75
2019-06-10T20:45:58.283Z,24.75
2019-06-10T20:51:03.957Z,24.61
2019-06-10T20:56:09.001Z,24.58
2019-06-10T21:01:14.289Z,24.61
2019-06-10T21:06:22.411Z,24.63
2019-06-10T21:11:27.330Z,24.60
2019-06-10T21:16:32.368Z,24.55
2019-06-10T21:21:37.361Z,24.48
2019-06-10T21:26:43.862Z,24.42
2019-06-10T21:31:50.443Z,24.33
2019-06-10T21:36:56.053Z,24.23
2019-06-10T21:42:02.337Z,24.10
2019-06-10T21:47:07.481Z,24.08
2019-06-10T21:52:12.936Z,23.93
2019-06-10T21:57:18.087Z,23.84
2019-06-10T22:02:23.168Z,23.80
2019-06-10T22:07:28.388Z,23.64
2019-06-10T22:12:33.415Z,23.59
2019-06-10T22:17:38.455Z,23.50
2019-06-10T22:22:44.435Z,23.47
2019-06-10T22:27:50.048Z,23.37
2019-06-10T22:32:57.872Z,23.34
2019-06-10T22:38:02.582Z,23.41
2019-06-10T22:43:07.838Z,23.48
2019-06-10T22:48:13.084Z,23.46
2019-06-10T22:58:23.759Z,23.20
2019-06-10T23:03:29.050Z,23.09
2019-06-10T23:08:34.099Z,22.95
2019-06-10T23:13:39.159Z,22.84
2019-06-10T23:18:44.208Z,22.82
2019-06-10T23:23:49.466Z,22.77
2019-06-10T23:28:56.033Z,22.76
2019-06-10T23:34:02.272Z,22.76
2019-06-10T23:39:07.466Z,22.30
2019-06-10T23:44:12.412Z,22.45
2019-06-10T23:49:17.465Z,22.29
2019-06-10T23:54:22.972Z,22.13
2019-06-10T23:59:27.967Z,22.07
